Terminal Aerodrome Forecast
Issued by NWS

Home | Current Version | Previous Version | Text Only | Print | Product List | Glossary On
Versions: 1 2 3 4 5 6 7 8 9 10 11 12 13 14 15 16 17 18 19 20 21 22 23 24 25 26 27 28 29 30 31 32 33 34 35 36 37 38 39 40 41 42 43 44 45 46 47 48 49 50
000
FTUS43 KDMX 240653 AAA
TAFOTM
TAF AMD
KOTM 240653Z 2407/2506 VRB05KT P6SM OVC009
     FM241000 13005KT 5SM BR SCT009 BKN020
     FM241600 13014G20KT 6SM BR VCSH OVC040
     FM242100 12015KT 5SM -RA OVC035
     FM242300 12014G22KT P6SM -RA BKN025
     FM250200 14011G18KT 5SM -RA BKN019=

USA.gov is the U.S. government's official web portal to all federal, state and local government web resources and services.